sensor_id;sensor_type;location;lat;lon;timestamp;pressure;altitude;pressure_sealevel;temperature;humidity
5053;BME280;2545;50.892;5.740;2023-05-01T00:00:59;56063.06;;;-142.21;60.14
5053;BME280;2545;50.892;5.740;2023-05-01T00:03:25;56067.00;;;-142.21;60.25
5053;BME280;2545;50.892;5.740;2023-05-01T00:05:50;56098.38;;;-142.21;60.78
5053;BME280;2545;50.892;5.740;2023-05-01T00:08:16;56074.84;;;-142.21;61.52
5053;BME280;2545;50.892;5.740;2023-05-01T00:10:41;56117.97;;;-142.21;62.33
5053;BME280;2545;50.892;5.740;2023-05-01T00:13:07;56076.78;;;-142.21;62.42
5053;BME280;2545;50.892;5.740;2023-05-01T00:15:34;56090.53;;;-142.21;62.87
5053;BME280;2545;50.892;5.740;2023-05-01T00:17:59;56063.06;;;-142.21;62.38
5053;BME280;2545;50.892;5.740;2023-05-01T00:20:28;56055.22;;;-142.21;63.15
5053;BME280;2545;50.892;5.740;2023-05-01T00:22:54;56117.97;;;-142.21;63.21
5053;BME280;2545;50.892;5.740;2023-05-01T00:25:19;56135.63;;;-142.21;62.65
5053;BME280;2545;50.892;5.740;2023-05-01T00:27:44;56068.94;;;-142.21;62.98
5053;BME280;2545;50.892;5.740;2023-05-01T00:30:10;56112.09;;;-142.21;62.61
5053;BME280;2545;50.892;5.740;2023-05-01T00:32:36;56092.47;;;-142.21;61.96
5053;BME280;2545;50.892;5.740;2023-05-01T00:35:02;56100.31;;;-142.21;62.15
5053;BME280;2545;50.892;5.740;2023-05-01T00:37:28;56123.84;;;-142.21;62.38
5053;BME280;2545;50.892;5.740;2023-05-01T00:39:53;56100.31;;;-142.21;62.42
5053;BME280;2545;50.892;5.740;2023-05-01T00:42:19;56108.16;;;-142.21;62.19
5053;BME280;2545;50.892;5.740;2023-05-01T00:44:44;56078.75;;;-142.21;63.01
5053;BME280;2545;50.892;5.740;2023-05-01T00:47:10;56094.44;;;-142.21;62.87
5053;BME280;2545;50.892;5.740;2023-05-01T00:49:35;56078.75;;;-142.21;63.48
5053;BME280;2545;50.892;5.740;2023-05-01T00:52:01;56078.75;;;-142.21;64.77
5053;BME280;2545;50.892;5.740;2023-05-01T00:54:27;56114.06;;;-142.21;64.97
5053;BME280;2545;50.892;5.740;2023-05-01T00:56:53;56100.31;;;-142.21;66.04
5053;BME280;2545;50.892;5.740;2023-05-01T00:59:19;56108.16;;;-142.21;66.37
5053;BME280;2545;50.892;5.740;2023-05-01T01:01:45;56082.69;;;-142.21;66.30
5053;BME280;2545;50.892;5.740;2023-05-01T01:04:11;56086.59;;;-142.21;66.96
5053;BME280;2545;50.892;5.740;2023-05-01T01:06:52;56094.44;;;-142.21;67.71
5053;BME280;2545;50.892;5.740;2023-05-01T01:09:45;56088.56;;;-142.21;67.39
5053;BME280;2545;50.892;5.740;2023-05-01T01:12:24;56078.75;;;-142.21;68.31
5053;BME280;2545;50.892;5.740;2023-05-01T01:15:12;56080.72;;;-142.21;68.84
5053;BME280;2545;50.892;5.740;2023-05-01T01:20:56;56074.84;;;-142.21;68.91
5053;BME280;2545;50.892;5.740;2023-05-01T01:23:32;56119.94;;;-142.21;69.31
5053;BME280;2545;50.892;5.740;2023-05-01T01:32:19;56110.13;;;-142.21;69.37
5053;BME280;2545;50.892;5.740;2023-05-01T01:34:54;56074.84;;;-142.21;68.97
5053;BME280;2545;50.892;5.740;2023-05-01T01:37:26;56123.84;;;-142.21;69.38
5053;BME280;2545;50.892;5.740;2023-05-01T01:39:54;56098.38;;;-142.21;70.11
5053;BME280;2545;50.892;5.740;2023-05-01T01:42:30;56086.59;;;-142.21;70.08
5053;BME280;2545;50.892;5.740;2023-05-01T01:45:02;56086.59;;;-142.21;70.21
5053;BME280;2545;50.892;5.740;2023-05-01T01:47:30;56104.25;;;-142.21;70.57
5053;BME280;2545;50.892;5.740;2023-05-01T01:50:00;56106.22;;;-142.21;70.27
5053;BME280;2545;50.892;5.740;2023-05-01T01:52:27;56088.56;;;-142.21;70.87
5053;BME280;2545;50.892;5.740;2023-05-01T01:54:57;56078.75;;;-142.21;69.98
5053;BME280;2545;50.892;5.740;2023-05-01T01:57:25;56116.00;;;-142.21;70.03
5053;BME280;2545;50.892;5.740;2023-05-01T01:59:52;56094.44;;;-142.21;70.55
5053;BME280;2545;50.892;5.740;2023-05-01T02:02:20;56112.09;;;-142.21;70.00
5053;BME280;2545;50.892;5.740;2023-05-01T02:04:50;56112.09;;;-142.21;70.73
5053;BME280;2545;50.892;5.740;2023-05-01T02:07:17;56112.09;;;-142.21;71.32
5053;BME280;2545;50.892;5.740;2023-05-01T02:09:44;56114.06;;;-142.21;70.98
5053;BME280;2545;50.892;5.740;2023-05-01T02:12:11;56086.59;;;-142.21;71.03
5053;BME280;2545;50.892;5.740;2023-05-01T02:14:37;56112.09;;;-142.21;70.89
5053;BME280;2545;50.892;5.740;2023-05-01T02:17:03;56074.84;;;-142.21;71.26
5053;BME280;2545;50.892;5.740;2023-05-01T02:19:31;56125.81;;;-142.21;70.89
5053;BME280;2545;50.892;5.740;2023-05-01T02:21:58;56080.72;;;-142.21;71.12
5053;BME280;2545;50.892;5.740;2023-05-01T02:24:24;56133.66;;;-142.21;71.17
5053;BME280;2545;50.892;5.740;2023-05-01T02:27:06;56141.50;;;-142.21;71.15
5053;BME280;2545;50.892;5.740;2023-05-01T02:29:32;56100.31;;;-142.21;71.08
5053;BME280;2545;50.892;5.740;2023-05-01T02:31:59;56116.00;;;-142.21;71.50
5053;BME280;2545;50.892;5.740;2023-05-01T02:34:24;56100.31;;;-142.21;71.94
5053;BME280;2545;50.892;5.740;2023-05-01T02:36:49;56141.50;;;-142.21;72.47
5053;BME280;2545;50.892;5.740;2023-05-01T02:39:15;56112.09;;;-142.21;72.52
5053;BME280;2545;50.892;5.740;2023-05-01T02:41:41;56092.47;;;-142.21;73.04
5053;BME280;2545;50.892;5.740;2023-05-01T02:44:08;56155.22;;;-142.21;72.92
5053;BME280;2545;50.892;5.740;2023-05-01T02:46:36;56106.22;;;-142.21;73.17
5053;BME280;2545;50.892;5.740;2023-05-01T02:49:03;56084.63;;;-142.21;73.22
5053;BME280;2545;50.892;5.740;2023-05-01T02:51:30;56070.91;;;-142.21;73.70
5053;BME280;2545;50.892;5.740;2023-05-01T02:53:56;56088.56;;;-142.21;74.29
5053;BME280;2545;50.892;5.740;2023-05-01T02:56:24;56088.56;;;-142.21;74.02
5053;BME280;2545;50.892;5.740;2023-05-01T02:58:51;56125.81;;;-142.21;74.31
5053;BME280;2545;50.892;5.740;2023-05-01T03:01:17;56137.59;;;-142.21;74.59
5053;BME280;2545;50.892;5.740;2023-05-01T03:03:42;56135.63;;;-142.21;74.98
5053;BME280;2545;50.892;5.740;2023-05-01T03:06:08;56084.63;;;-142.21;74.36
5053;BME280;2545;50.892;5.740;2023-05-01T03:08:33;56112.09;;;-142.21;74.22
5053;BME280;2545;50.892;5.740;2023-05-01T03:10:59;56116.00;;;-142.21;74.75
5053;BME280;2545;50.892;5.740;2023-05-01T03:13:24;56127.78;;;-142.21;74.94
5053;BME280;2545;50.892;5.740;2023-05-01T03:15:49;56106.22;;;-142.21;74.34
5053;BME280;2545;50.892;5.740;2023-05-01T03:18:14;56100.31;;;-142.21;73.82
5053;BME280;2545;50.892;5.740;2023-05-01T03:20:40;56135.63;;;-142.21;74.22
5053;BME280;2545;50.892;5.740;2023-05-01T03:23:14;56110.13;;;-142.21;74.15
5053;BME280;2545;50.892;5.740;2023-05-01T03:25:40;56119.94;;;-142.21;74.75
5053;BME280;2545;50.892;5.740;2023-05-01T03:28:05;56112.09;;;-142.21;74.98
5053;BME280;2545;50.892;5.740;2023-05-01T03:30:32;56145.44;;;-142.21;74.71
5053;BME280;2545;50.892;5.740;2023-05-01T03:32:58;56086.59;;;-142.21;74.54
5053;BME280;2545;50.892;5.740;2023-05-01T03:35:23;56082.69;;;-142.21;74.65
5053;BME280;2545;50.892;5.740;2023-05-01T03:37:48;56127.78;;;-142.21;75.06
5053;BME280;2545;50.892;5.740;2023-05-01T03:40:14;56086.59;;;-142.21;75.16
5053;BME280;2545;50.892;5.740;2023-05-01T03:42:39;56090.53;;;-142.21;75.64
5053;BME280;2545;50.892;5.740;2023-05-01T03:45:05;56076.78;;;-142.21;76.24
5053;BME280;2545;50.892;5.740;2023-05-01T03:47:30;56108.16;;;-142.21;76.74
5053;BME280;2545;50.892;5.740;2023-05-01T03:49:56;56088.56;;;-142.21;77.22
5053;BME280;2545;50.892;5.740;2023-05-01T03:52:21;56074.84;;;-142.21;78.37
5053;BME280;2545;50.892;5.740;2023-05-01T03:54:46;56114.06;;;-142.21;78.41
5053;BME280;2545;50.892;5.740;2023-05-01T03:57:12;56145.44;;;-142.21;79.49
5053;BME280;2545;50.892;5.740;2023-05-01T03:59:38;56108.16;;;-142.21;79.63
5053;BME280;2545;50.892;5.740;2023-05-01T04:02:04;56104.25;;;-142.21;80.14
5053;BME280;2545;50.892;5.740;2023-05-01T04:04:29;56151.31;;;-142.21;80.20
5053;BME280;2545;50.892;5.740;2023-05-01T04:06:55;56108.16;;;-142.21;80.49
5053;BME280;2545;50.892;5.740;2023-05-01T04:09:20;56117.97;;;-142.21;81.32
5053;BME280;2545;50.892;5.740;2023-05-01T04:11:45;56080.72;;;-142.21;81.50
5053;BME280;2545;50.892;5.740;2023-05-01T04:14:11;56102.28;;;-142.21;82.12
5053;BME280;2545;50.892;5.740;2023-05-01T04:16:36;56116.00;;;-142.21;82.61
5053;BME280;2545;50.892;5.740;2023-05-01T04:19:01;56119.94;;;-142.21;83.20
5053;BME280;2545;50.892;5.740;2023-05-01T04:21:27;56157.19;;;-142.21;83.51
5053;BME280;2545;50.892;5.740;2023-05-01T04:23:52;56116.00;;;-142.21;83.82
5053;BME280;2545;50.892;5.740;2023-05-01T04:26:17;56074.84;;;-142.21;83.57
5053;BME280;2545;50.892;5.740;2023-05-01T04:28:43;56137.59;;;-142.21;83.58
5053;BME280;2545;50.892;5.740;2023-05-01T04:31:08;56084.63;;;-142.21;83.75
5053;BME280;2545;50.892;5.740;2023-05-01T04:33:34;56119.94;;;-142.21;83.87
5053;BME280;2545;50.892;5.740;2023-05-01T04:35:59;56133.66;;;-142.21;83.75
5053;BME280;2545;50.892;5.740;2023-05-01T04:38:25;56108.16;;;-142.21;83.46
5053;BME280;2545;50.892;5.740;2023-05-01T04:40:50;56082.69;;;-142.21;82.61
5053;BME280;2545;50.892;5.740;2023-05-01T04:43:16;56121.91;;;-142.21;82.86
5053;BME280;2545;50.892;5.740;2023-05-01T04:45:41;56125.81;;;-142.21;82.51
5053;BME280;2545;50.892;5.740;2023-05-01T04:48:07;56127.78;;;-142.21;82.02
5053;BME280;2545;50.892;5.740;2023-05-01T04:50:32;56127.78;;;-142.21;81.90
5053;BME280;2545;50.892;5.740;2023-05-01T04:52:57;56112.09;;;-142.21;82.62
5053;BME280;2545;50.892;5.740;2023-05-01T04:55:23;56117.97;;;-142.21;82.56
5053;BME280;2545;50.892;5.740;2023-05-01T04:57:49;56116.00;;;-142.21;81.49
5053;BME280;2545;50.892;5.740;2023-05-01T05:00:14;56131.69;;;-142.21;81.85
5053;BME280;2545;50.892;5.740;2023-05-01T05:02:40;56104.25;;;-142.21;81.15
5053;BME280;2545;50.892;5.740;2023-05-01T05:05:05;56151.31;;;-142.21;80.34
5053;BME280;2545;50.892;5.740;2023-05-01T05:07:31;56088.56;;;-142.21;79.14
5053;BME280;2545;50.892;5.740;2023-05-01T05:09:56;56112.09;;;-142.21;78.50
5053;BME280;2545;50.892;5.740;2023-05-01T05:12:21;56147.38;;;-142.21;79.03
5053;BME280;2545;50.892;5.740;2023-05-01T05:14:46;56114.06;;;-142.21;79.24
5053;BME280;2545;50.892;5.740;2023-05-01T05:17:12;56129.75;;;-142.21;79.17
5053;BME280;2545;50.892;5.740;2023-05-01T05:19:37;56123.84;;;-142.21;78.22
5053;BME280;2545;50.892;5.740;2023-05-01T05:22:03;56108.16;;;-142.21;78.38
5053;BME280;2545;50.892;5.740;2023-05-01T05:24:29;56112.09;;;-142.21;78.68
5053;BME280;2545;50.892;5.740;2023-05-01T05:26:54;56067.00;;;-142.21;79.36
5053;BME280;2545;50.892;5.740;2023-05-01T05:29:19;56104.25;;;-142.21;79.37
5053;BME280;2545;50.892;5.740;2023-05-01T05:31:45;56131.69;;;-142.21;78.98
5053;BME280;2545;50.892;5.740;2023-05-01T05:34:11;56112.09;;;-142.21;77.79
5053;BME280;2545;50.892;5.740;2023-05-01T05:36:36;56116.00;;;-142.21;78.69
5053;BME280;2545;50.892;5.740;2023-05-01T05:39:02;56096.41;;;-142.21;77.35
5053;BME280;2545;50.892;5.740;2023-05-01T05:41:27;56104.25;;;-142.21;77.42
5053;BME280;2545;50.892;5.740;2023-05-01T05:43:53;56119.94;;;-142.21;78.84
5053;BME280;2545;50.892;5.740;2023-05-01T05:46:18;56116.00;;;-142.21;79.22
5053;BME280;2545;50.892;5.740;2023-05-01T05:48:43;56100.31;;;-142.21;78.78
5053;BME280;2545;50.892;5.740;2023-05-01T05:51:09;56096.41;;;-142.21;79.18
5053;BME280;2545;50.892;5.740;2023-05-01T05:53:34;56108.16;;;-142.21;79.41
5053;BME280;2545;50.892;5.740;2023-05-01T05:55:59;56110.13;;;-142.21;78.45
5053;BME280;2545;50.892;5.740;2023-05-01T05:58:25;56096.41;;;-142.21;77.59
5053;BME280;2545;50.892;5.740;2023-05-01T06:00:51;56116.00;;;-142.21;76.71
5053;BME280;2545;50.892;5.740;2023-05-01T06:03:20;56121.91;;;-142.21;76.05
5053;BME280;2545;50.892;5.740;2023-05-01T06:05:46;56127.78;;;-142.21;76.30
5053;BME280;2545;50.892;5.740;2023-05-01T06:08:11;56117.97;;;-142.21;76.35
5053;BME280;2545;50.892;5.740;2023-05-01T06:10:38;56129.75;;;-142.21;76.81
5053;BME280;2545;50.892;5.740;2023-05-01T06:13:05;56096.41;;;-142.21;75.50
5053;BME280;2545;50.892;5.740;2023-05-01T06:15:35;56121.91;;;-142.21;75.44
5053;BME280;2545;50.892;5.740;2023-05-01T06:18:01;56088.56;;;-142.21;74.91
5053;BME280;2545;50.892;5.740;2023-05-01T06:20:27;56139.53;;;-142.21;74.23
5053;BME280;2545;50.892;5.740;2023-05-01T06:22:52;56106.22;;;-142.21;74.34
5053;BME280;2545;50.892;5.740;2023-05-01T06:25:17;56092.47;;;-142.21;74.71
5053;BME280;2545;50.892;5.740;2023-05-01T06:27:43;56131.69;;;-142.21;74.34
5053;BME280;2545;50.892;5.740;2023-05-01T06:30:09;56127.78;;;-142.21;73.85
5053;BME280;2545;50.892;5.740;2023-05-01T06:32:35;56080.72;;;-142.21;73.84
5053;BME280;2545;50.892;5.740;2023-05-01T06:35:00;56112.09;;;-142.21;74.02
5053;BME280;2545;50.892;5.740;2023-05-01T06:37:25;56121.91;;;-142.21;74.25
5053;BME280;2545;50.892;5.740;2023-05-01T06:39:51;56084.63;;;-142.21;74.18
5053;BME280;2545;50.892;5.740;2023-05-01T06:42:16;56141.50;;;-142.21;75.40
5053;BME280;2545;50.892;5.740;2023-05-01T06:44:42;56096.41;;;-142.21;74.25
5053;BME280;2545;50.892;5.740;2023-05-01T06:47:07;56074.84;;;-142.21;73.70
5053;BME280;2545;50.892;5.740;2023-05-01T06:49:32;56068.94;;;-142.21;74.67
5053;BME280;2545;50.892;5.740;2023-05-01T06:51:58;56049.34;;;-142.21;74.37
5053;BME280;2545;50.892;5.740;2023-05-01T06:54:24;56094.44;;;-142.21;75.69
5053;BME280;2545;50.892;5.740;2023-05-01T06:56:52;56082.69;;;-142.21;75.75
5053;BME280;2545;50.892;5.740;2023-05-01T06:59:17;56094.44;;;-142.21;74.98
5053;BME280;2545;50.892;5.740;2023-05-01T07:01:43;56098.38;;;-142.21;74.25
5053;BME280;2545;50.892;5.740;2023-05-01T07:04:08;56092.47;;;-142.21;73.26
5053;BME280;2545;50.892;5.740;2023-05-01T07:06:33;56080.72;;;-142.21;73.64
5053;BME280;2545;50.892;5.740;2023-05-01T07:08:59;56098.38;;;-142.21;72.99
5053;BME280;2545;50.892;5.740;2023-05-01T07:11:24;56121.91;;;-142.21;73.17
5053;BME280;2545;50.892;5.740;2023-05-01T07:13:51;56100.31;;;-142.21;73.50
5053;BME280;2545;50.892;5.740;2023-05-01T07:16:16;56112.09;;;-142.21;73.05
5053;BME280;2545;50.892;5.740;2023-05-01T07:18:42;56149.34;;;-142.21;72.56
5053;BME280;2545;50.892;5.740;2023-05-01T07:21:07;56084.63;;;-142.21;72.59
5053;BME280;2545;50.892;5.740;2023-05-01T07:23:36;56110.13;;;-142.21;71.55
5053;BME280;2545;50.892;5.740;2023-05-01T07:26:01;56100.31;;;-142.21;70.81
5053;BME280;2545;50.892;5.740;2023-05-01T07:28:26;56078.75;;;-142.21;70.07
5053;BME280;2545;50.892;5.740;2023-05-01T07:30:52;56068.94;;;-142.21;69.36
5053;BME280;2545;50.892;5.740;2023-05-01T07:33:17;56068.94;;;-142.21;69.41
5053;BME280;2545;50.892;5.740;2023-05-01T07:35:42;56100.31;;;-142.21;68.56
5053;BME280;2545;50.892;5.740;2023-05-01T07:38:08;56059.16;;;-142.21;67.81
5053;BME280;2545;50.892;5.740;2023-05-01T07:40:33;56096.41;;;-142.21;68.49
5053;BME280;2545;50.892;5.740;2023-05-01T07:42:59;56061.09;;;-142.21;67.90
5053;BME280;2545;50.892;5.740;2023-05-01T07:45:25;56096.41;;;-142.21;66.46
5053;BME280;2545;50.892;5.740;2023-05-01T07:47:50;56116.00;;;-142.21;65.17
5053;BME280;2545;50.892;5.740;2023-05-01T07:50:16;56074.84;;;-142.21;65.09
5053;BME280;2545;50.892;5.740;2023-05-01T07:52:42;56074.84;;;-142.21;63.45
5053;BME280;2545;50.892;5.740;2023-05-01T07:55:07;56037.56;;;-142.21;62.56
5053;BME280;2545;50.892;5.740;2023-05-01T07:57:34;56084.63;;;-142.21;61.84
5053;BME280;2545;50.892;5.740;2023-05-01T07:59:59;56094.44;;;-142.21;61.20
5053;BME280;2545;50.892;5.740;2023-05-01T08:02:25;56061.09;;;-142.21;60.95
5053;BME280;2545;50.892;5.740;2023-05-01T08:04:50;56114.06;;;-142.21;60.68
5053;BME280;2545;50.892;5.740;2023-05-01T08:07:16;56063.06;;;-142.21;60.27
5053;BME280;2545;50.892;5.740;2023-05-01T08:09:41;56061.09;;;-142.21;61.83
5053;BME280;2545;50.892;5.740;2023-05-01T08:12:07;56070.91;;;-142.21;60.72
5053;BME280;2545;50.892;5.740;2023-05-01T08:14:32;56080.72;;;-142.21;59.44
5053;BME280;2545;50.892;5.740;2023-05-01T08:16:58;56084.63;;;-142.21;59.67
5053;BME280;2545;50.892;5.740;2023-05-01T08:19:23;56078.75;;;-142.21;59.18
5053;BME280;2545;50.892;5.740;2023-05-01T08:21:49;56049.34;;;-142.21;58.94
5053;BME280;2545;50.892;5.740;2023-05-01T08:24:14;56037.56;;;-142.21;58.51
5053;BME280;2545;50.892;5.740;2023-05-01T08:26:39;56117.97;;;-142.21;57.98
5053;BME280;2545;50.892;5.740;2023-05-01T08:29:05;56116.00;;;-142.21;58.08
5053;BME280;2545;50.892;5.740;2023-05-01T08:31:30;56055.22;;;-142.21;57.33
5053;BME280;2545;50.892;5.740;2023-05-01T08:33:55;56068.94;;;-142.21;56.85
5053;BME280;2545;50.892;5.740;2023-05-01T08:36:21;56084.63;;;-142.21;56.74
5053;BME280;2545;50.892;5.740;2023-05-01T08:38:46;56084.63;;;-142.21;56.74
5053;BME280;2545;50.892;5.740;2023-05-01T08:41:19;56076.78;;;-142.21;55.86
5053;BME280;2545;50.892;5.740;2023-05-01T08:43:45;56065.03;;;-142.21;56.22
5053;BME280;2545;50.892;5.740;2023-05-01T08:46:11;56092.47;;;-142.21;56.10
5053;BME280;2545;50.892;5.740;2023-05-01T08:48:39;56059.16;;;-142.21;54.80
5053;BME280;2545;50.892;5.740;2023-05-01T08:51:09;56059.16;;;-142.21;54.95
5053;BME280;2545;50.892;5.740;2023-05-01T08:53:36;56043.47;;;-142.21;54.30
5053;BME280;2545;50.892;5.740;2023-05-01T08:56:05;56029.72;;;-142.21;53.50
5053;BME280;2545;50.892;5.740;2023-05-01T08:58:32;56045.41;;;-142.21;54.25
5053;BME280;2545;50.892;5.740;2023-05-01T09:01:00;56055.22;;;-142.21;53.62
5053;BME280;2545;50.892;5.740;2023-05-01T09:03:30;56047.38;;;-142.21;53.80
5053;BME280;2545;50.892;5.740;2023-05-01T09:05:56;56082.69;;;-142.21;54.43
5053;BME280;2545;50.892;5.740;2023-05-01T09:08:22;56070.91;;;-142.21;52.32
5053;BME280;2545;50.892;5.740;2023-05-01T09:10:48;56025.81;;;-142.21;52.59
5053;BME280;2545;50.892;5.740;2023-05-01T09:13:14;56088.56;;;-142.21;50.81
5053;BME280;2545;50.892;5.740;2023-05-01T09:15:40;56070.91;;;-142.21;50.67
5053;BME280;2545;50.892;5.740;2023-05-01T09:18:07;56057.19;;;-142.21;50.24
5053;BME280;2545;50.892;5.740;2023-05-01T09:20:32;56059.16;;;-142.21;49.12
5053;BME280;2545;50.892;5.740;2023-05-01T09:23:01;56033.66;;;-142.21;50.33
5053;BME280;2545;50.892;5.740;2023-05-01T09:25:27;56043.47;;;-142.21;49.54
5053;BME280;2545;50.892;5.740;2023-05-01T09:27:53;56014.06;;;-142.21;50.49
5053;BME280;2545;50.892;5.740;2023-05-01T09:30:36;56033.66;;;-142.21;48.93
5053;BME280;2545;50.892;5.740;2023-05-01T09:33:08;56063.06;;;-142.21;49.22
5053;BME280;2545;50.892;5.740;2023-05-01T09:35:53;56061.09;;;-142.21;47.81
5053;BME280;2545;50.892;5.740;2023-05-01T09:38:23;56045.41;;;-142.21;48.16
5053;BME280;2545;50.892;5.740;2023-05-01T09:40:49;56039.53;;;-142.21;47.60
5053;BME280;2545;50.892;5.740;2023-05-01T09:43:25;56047.38;;;-142.21;48.07
5053;BME280;2545;50.892;5.740;2023-05-01T09:46:02;56041.50;;;-142.21;46.91
5053;BME280;2545;50.892;5.740;2023-05-01T09:48:29;56067.00;;;-142.21;47.75
5053;BME280;2545;50.892;5.740;2023-05-01T09:50:55;56043.47;;;-142.21;49.76
5053;BME280;2545;50.892;5.740;2023-05-01T09:53:34;56039.53;;;-142.21;48.37
5053;BME280;2545;50.892;5.740;2023-05-01T09:56:00;56010.13;;;-142.21;48.92
5053;BME280;2545;50.892;5.740;2023-05-01T09:58:27;56035.63;;;-142.21;48.09
5053;BME280;2545;50.892;5.740;2023-05-01T10:00:52;56051.31;;;-142.21;49.55
5053;BME280;2545;50.892;5.740;2023-05-01T10:03:18;56031.69;;;-142.21;47.01
5053;BME280;2545;50.892;5.740;2023-05-01T10:05:43;56076.78;;;-142.21;46.52
5053;BME280;2545;50.892;5.740;2023-05-01T10:08:09;56012.09;;;-142.21;47.45
5053;BME280;2545;50.892;5.740;2023-05-01T10:10:42;56002.28;;;-142.21;46.77
5053;BME280;2545;50.892;5.740;2023-05-01T10:13:17;56012.09;;;-142.21;48.09
5053;BME280;2545;50.892;5.740;2023-05-01T10:15:45;56021.88;;;-142.21;47.09
5053;BME280;2545;50.892;5.740;2023-05-01T10:18:11;56031.69;;;-142.21;44.47
5053;BME280;2545;50.892;5.740;2023-05-01T10:20:38;56027.78;;;-142.21;42.54
5053;BME280;2545;50.892;5.740;2023-05-01T10:23:04;56025.81;;;-142.21;43.21
5053;BME280;2545;50.892;5.740;2023-05-01T10:25:30;55992.47;;;-142.21;44.94
5053;BME280;2545;50.892;5.740;2023-05-01T10:27:56;55994.44;;;-142.21;42.95
5053;BME280;2545;50.892;5.740;2023-05-01T10:30:22;56025.81;;;-142.21;41.29
5053;BME280;2545;50.892;5.740;2023-05-01T10:32:47;56002.28;;;-142.21;40.42
5053;BME280;2545;50.892;5.740;2023-05-01T10:35:18;56006.22;;;-142.21;40.08
5053;BME280;2545;50.892;5.740;2023-05-01T10:45:40;55965.03;;;-142.21;41.10
5053;BME280;2545;50.892;5.740;2023-05-01T10:48:05;55974.84;;;-142.21;41.57
5053;BME280;2545;50.892;5.740;2023-05-01T10:50:32;55974.84;;;-142.21;40.75
5053;BME280;2545;50.892;5.740;2023-05-01T10:55:45;56016.00;;;-142.21;43.09
5053;BME280;2545;50.892;5.740;2023-05-01T10:58:12;56023.84;;;-142.21;44.19
5053;BME280;2545;50.892;5.740;2023-05-01T11:00:38;55994.44;;;-142.21;44.89
5053;BME280;2545;50.892;5.740;2023-05-01T11:08:32;55990.53;;;-142.21;36.64
5053;BME280;2545;50.892;5.740;2023-05-01T11:14:01;55951.31;;;-142.21;36.61
5053;BME280;2545;50.892;5.740;2023-05-01T11:21:33;55957.19;;;-142.21;35.88
5053;BME280;2545;50.892;5.740;2023-05-01T11:23:59;55980.72;;;-142.21;37.45
5053;BME280;2545;50.892;5.740;2023-05-01T11:26:27;55998.38;;;-142.21;37.95
5053;BME280;2545;50.892;5.740;2023-05-01T11:28:54;55992.47;;;-142.21;37.77
5053;BME280;2545;50.892;5.740;2023-05-01T11:31:20;55980.72;;;-142.21;38.49
5053;BME280;2545;50.892;5.740;2023-05-01T11:33:46;55968.94;;;-142.21;38.86
5053;BME280;2545;50.892;5.740;2023-05-01T11:36:11;55959.16;;;-142.21;38.59
5053;BME280;2545;50.892;5.740;2023-05-01T11:38:48;55978.75;;;-142.21;36.97
5053;BME280;2545;50.892;5.740;2023-05-01T11:41:13;55919.94;;;-142.21;35.85
5053;BME280;2545;50.892;5.740;2023-05-01T11:43:57;55980.72;;;-142.21;33.85
5053;BME280;2545;50.892;5.740;2023-05-01T11:48:53;55949.34;;;-142.21;33.14
5053;BME280;2545;50.892;5.740;2023-05-01T11:51:18;55947.38;;;-142.21;33.17
5053;BME280;2545;50.892;5.740;2023-05-01T11:53:57;55945.41;;;-142.21;32.15
5053;BME280;2545;50.892;5.740;2023-05-01T11:56:24;55900.31;;;-142.21;31.40
5053;BME280;2545;50.892;5.740;2023-05-01T11:58:50;55917.97;;;-142.21;31.68
5053;BME280;2545;50.892;5.740;2023-05-01T12:01:15;55910.13;;;-142.21;31.46
5053;BME280;2545;50.892;5.740;2023-05-01T12:03:43;55919.94;;;-142.21;32.59
5053;BME280;2545;50.892;5.740;2023-05-01T12:06:12;55947.38;;;-142.21;33.59
5053;BME280;2545;50.892;5.740;2023-05-01T12:08:42;55988.56;;;-142.21;34.29
5053;BME280;2545;50.892;5.740;2023-05-01T12:11:09;55943.47;;;-142.21;34.92
5053;BME280;2545;50.892;5.740;2023-05-01T12:13:35;55974.84;;;-142.21;36.57
5053;BME280;2545;50.892;5.740;2023-05-01T12:16:00;55992.47;;;-142.21;36.45
5053;BME280;2545;50.892;5.740;2023-05-01T12:18:27;55967.00;;;-142.21;37.61
5053;BME280;2545;50.892;5.740;2023-05-01T12:20:53;55990.53;;;-142.21;39.73
5053;BME280;2545;50.892;5.740;2023-05-01T12:23:29;56045.41;;;-142.21;42.49
5053;BME280;2545;50.892;5.740;2023-05-01T12:25:55;55992.47;;;-142.21;50.73
5053;BME280;2545;50.892;5.740;2023-05-01T12:28:21;56059.16;;;-142.21;56.55
5053;BME280;2545;50.892;5.740;2023-05-01T12:30:47;56039.53;;;-142.21;64.08
5053;BME280;2545;50.892;5.740;2023-05-01T12:33:19;56045.41;;;-142.21;64.68
5053;BME280;2545;50.892;5.740;2023-05-01T12:35:46;56063.06;;;-142.21;65.97
5053;BME280;2545;50.892;5.740;2023-05-01T12:38:17;56068.94;;;-142.21;68.31
5053;BME280;2545;50.892;5.740;2023-05-01T12:40:56;56055.22;;;-142.21;68.41
5053;BME280;2545;50.892;5.740;2023-05-01T12:43:33;56082.69;;;-142.21;67.93
5053;BME280;2545;50.892;5.740;2023-05-01T12:45:59;56092.47;;;-142.21;68.42
5053;BME280;2545;50.892;5.740;2023-05-01T12:48:25;56078.75;;;-142.21;69.33
5053;BME280;2545;50.892;5.740;2023-05-01T12:50:51;56006.22;;;-142.21;66.74
5053;BME280;2545;50.892;5.740;2023-05-01T12:53:23;56078.75;;;-142.21;66.34
5053;BME280;2545;50.892;5.740;2023-05-01T12:55:52;56055.22;;;-142.21;59.84
5053;BME280;2545;50.892;5.740;2023-05-01T12:58:18;56068.94;;;-142.21;59.19
5053;BME280;2545;50.892;5.740;2023-05-01T13:00:51;56051.31;;;-142.21;57.57
5053;BME280;2545;50.892;5.740;2023-05-01T13:03:23;56025.81;;;-142.21;56.61
5053;BME280;2545;50.892;5.740;2023-05-01T13:05:50;56045.41;;;-142.21;57.78
5053;BME280;2545;50.892;5.740;2023-05-01T13:08:42;56061.09;;;-142.21;61.02
5053;BME280;2545;50.892;5.740;2023-05-01T13:11:14;56045.41;;;-142.21;63.57
5053;BME280;2545;50.892;5.740;2023-05-01T13:13:42;56059.16;;;-142.21;59.41
5053;BME280;2545;50.892;5.740;2023-05-01T13:16:12;56045.41;;;-142.21;60.30
5053;BME280;2545;50.892;5.740;2023-05-01T13:18:43;56025.81;;;-142.21;60.33
5053;BME280;2545;50.892;5.740;2023-05-01T13:21:09;56031.69;;;-142.21;57.29
5053;BME280;2545;50.892;5.740;2023-05-01T13:23:36;56014.06;;;-142.21;53.43
5053;BME280;2545;50.892;5.740;2023-05-01T13:26:04;55982.69;;;-142.21;48.21
5053;BME280;2545;50.892;5.740;2023-05-01T13:28:31;55990.53;;;-142.21;45.74
5053;BME280;2545;50.892;5.740;2023-05-01T13:30:57;55984.63;;;-142.21;44.74
5053;BME280;2545;50.892;5.740;2023-05-01T13:33:22;55974.84;;;-142.21;43.79
5053;BME280;2545;50.892;5.740;2023-05-01T13:35:47;56012.09;;;-142.21;45.50